createdAt,value
2017-09-30T00:00:17.395Z,18.4
2017-09-30T00:02:17.353Z,20.2
2017-09-30T00:04:17.301Z,14.4
2017-09-30T00:06:18.243Z,25.8
2017-09-30T00:08:17.187Z,16.7
2017-09-30T00:10:18.156Z,15.7
2017-09-30T00:12:17.095Z,18.3
2017-09-30T00:14:17.018Z,15.3
2017-09-30T00:16:18.007Z,27
2017-09-30T00:18:16.925Z,21.5
2017-09-30T00:20:17.859Z,17.9
2017-09-30T00:22:17.826Z,24.4
2017-09-30T00:24:17.776Z,22
2017-09-30T00:26:17.704Z,21
2017-09-30T00:28:17.694Z,26.1
2017-09-30T00:30:17.602Z,18.2
2017-09-30T00:32:17.561Z,19.9
2017-09-30T00:34:17.536Z,18.9
2017-09-30T00:36:17.424Z,17.6
2017-09-30T00:38:17.390Z,21.2
2017-09-30T00:40:17.328Z,17.8
2017-09-30T00:42:17.284Z,27.2
2017-09-30T00:44:17.265Z,17.6
2017-09-30T00:46:17.171Z,32.1
2017-09-30T00:48:17.096Z,21.8
2017-09-30T00:50:17.053Z,23.1
2017-09-30T00:52:16.968Z,16.9
2017-09-30T00:54:16.936Z,17.6
2017-09-30T00:56:17.901Z,15.2
2017-09-30T00:58:17.808Z,17.3
2017-09-30T01:00:17.793Z,15.3
2017-09-30T01:02:17.720Z,25.8
2017-09-30T01:04:17.631Z,22
2017-09-30T01:06:17.596Z,21.9
2017-09-30T01:08:17.572Z,24.8
2017-09-30T01:10:17.491Z,19.1
2017-09-30T01:12:17.388Z,20.9
2017-09-30T01:14:17.330Z,16.4
2017-09-30T01:16:18.262Z,16.4
2017-09-30T01:18:17.198Z,16.8
2017-09-30T01:20:18.164Z,14.8
2017-09-30T01:22:17.051Z,20.5
2017-09-30T01:24:17.043Z,20.5
2017-09-30T01:26:17.972Z,22.3
2017-09-30T01:28:16.925Z,21.6
2017-09-30T01:30:17.845Z,28
2017-09-30T01:32:17.810Z,18.9
2017-09-30T01:34:17.698Z,18
2017-09-30T01:36:17.642Z,14.6
2017-09-30T01:38:17.596Z,16.6
2017-09-30T01:40:17.519Z,22
2017-09-30T01:42:17.466Z,28
2017-09-30T01:44:17.449Z,18.9
2017-09-30T01:46:18.378Z,17.3
2017-09-30T01:48:17.331Z,17.6
2017-09-30T01:50:17.268Z,16.6
2017-09-30T01:52:17.173Z,19.7
2017-09-30T01:54:17.121Z,23.4
2017-09-30T01:56:18.061Z,21.1
2017-09-30T01:58:17.009Z,30.4
2017-09-30T02:00:16.913Z,21.9
2017-09-30T02:02:17.907Z,24.1
2017-09-30T02:04:17.794Z,19.7
2017-09-30T02:06:17.726Z,18.9
2017-09-30T02:08:17.657Z,23.5
2017-09-30T02:10:17.559Z,22.5
2017-09-30T02:12:17.481Z,17
2017-09-30T02:14:17.434Z,24.9
2017-09-30T02:16:18.340Z,23.6
2017-09-30T02:18:17.264Z,26.9
2017-09-30T02:20:17.187Z,23.7
2017-09-30T02:22:17.093Z,18.7
2017-09-30T02:24:17.009Z,20.1
2017-09-30T02:26:17.934Z,20.7
2017-09-30T02:28:16.906Z,19.5
2017-09-30T02:30:17.831Z,16.8
2017-09-30T02:32:17.750Z,19.5
2017-09-30T02:34:17.711Z,23.2
2017-09-30T02:36:17.621Z,18.9
2017-09-30T02:38:17.563Z,18.2
2017-09-30T02:40:17.439Z,15.9
2017-09-30T02:42:17.402Z,19.7
2017-09-30T02:44:17.324Z,23.4
2017-09-30T02:46:17.255Z,20.2
2017-09-30T02:48:17.194Z,21.8
2017-09-30T02:50:17.143Z,20
2017-09-30T02:52:17.027Z,20.5
2017-09-30T02:54:16.986Z,19.1
2017-09-30T02:56:17.914Z,26.5
2017-09-30T02:58:17.793Z,19.8
2017-09-30T03:00:17.731Z,17.7
2017-09-30T03:04:17.591Z,19.5
2017-09-30T03:06:17.552Z,18.2
2017-09-30T03:08:17.411Z,21.9
2017-09-30T03:10:18.405Z,19.4
2017-09-30T03:12:17.269Z,19.4
2017-09-30T03:14:17.185Z,21.2
2017-09-30T03:16:17.138Z,21.4
2017-09-30T03:18:17.020Z,19.2
2017-09-30T03:20:16.967Z,21.8
2017-09-30T03:22:16.928Z,18.5
2017-09-30T03:24:17.764Z,21.4
2017-09-30T03:26:18.036Z,22
2017-09-30T03:28:17.654Z,18.4
2017-09-30T03:30:17.575Z,27.5
2017-09-30T03:32:17.779Z,22
2017-09-30T03:34:18.406Z,22.3
2017-09-30T03:36:17.309Z,23.3
2017-09-30T03:38:17.285Z,22.9
2017-09-30T03:40:18.172Z,20.6
2017-09-30T03:42:17.108Z,21.9
2017-09-30T03:44:17.008Z,21.3
2017-09-30T03:46:17.916Z,21.3
2017-09-30T03:48:17.823Z,21.2
2017-09-30T03:50:17.719Z,20.5
2017-09-30T03:52:17.665Z,19.3
2017-09-30T03:54:17.584Z,17
2017-09-30T03:56:17.518Z,21.6
2017-09-30T03:58:17.466Z,18.2
2017-09-30T04:00:17.359Z,20.9
2017-09-30T04:02:17.249Z,21.4
2017-09-30T04:04:17.158Z,20.1
2017-09-30T04:06:18.137Z,24.5
2017-09-30T04:08:16.992Z,22.6
2017-09-30T04:10:17.899Z,18.7
2017-09-30T04:12:17.836Z,24
2017-09-30T04:14:17.770Z,20.8
2017-09-30T04:16:17.625Z,23
2017-09-30T04:18:17.561Z,23.4
2017-09-30T04:20:17.450Z,16.7
2017-09-30T04:22:17.345Z,24.5
2017-09-30T04:24:17.307Z,32
2017-09-30T04:26:17.197Z,20.5
2017-09-30T04:28:17.102Z,26.3
2017-09-30T04:30:17.041Z,28.1
2017-09-30T04:32:16.953Z,25.6
2017-09-30T04:34:16.862Z,25
2017-09-30T04:36:17.794Z,21.6
2017-09-30T04:38:17.707Z,23.8
2017-09-30T04:40:17.634Z,28
2017-09-30T04:42:17.554Z,29.1
2017-09-30T04:44:17.425Z,22.4
2017-09-30T04:46:18.364Z,24.8
2017-09-30T04:48:17.318Z,21.1
2017-09-30T04:50:17.205Z,23.9
2017-09-30T04:52:17.109Z,19.6
2017-09-30T04:54:17.049Z,24
2017-09-30T04:56:17.941Z,20.7
2017-09-30T04:58:16.839Z,26.2
2017-09-30T05:00:17.785Z,23.6
2017-09-30T05:02:17.634Z,24.2
2017-09-30T05:04:17.555Z,33.4
2017-09-30T05:06:18.431Z,24.4
2017-09-30T05:08:17.355Z,32.1
2017-09-30T05:10:18.263Z,23.3
2017-09-30T05:12:17.154Z,20.4
2017-09-30T05:14:17.072Z,31.5
2017-09-30T05:16:18.012Z,23.9
2017-09-30T05:18:16.851Z,22.1
2017-09-30T05:20:17.779Z,24.9
2017-09-30T05:22:17.672Z,28.7
2017-09-30T05:24:17.573Z,28.1
2017-09-30T05:26:18.529Z,21.5
2017-09-30T05:28:17.383Z,29.4
2017-09-30T05:30:17.281Z,23.7
2017-09-30T05:32:17.173Z,20.6
2017-09-30T05:34:17.038Z,28.4
2017-09-30T05:36:17.945Z,20.6
2017-09-30T05:38:16.855Z,24
2017-09-30T05:40:17.716Z,26.5
2017-09-30T05:42:17.600Z,20.9
2017-09-30T05:44:17.529Z,17.6
2017-09-30T05:46:18.386Z,24.3
2017-09-30T05:48:17.320Z,27
2017-09-30T05:50:17.190Z,21.5
2017-09-30T05:52:17.105Z,22.6
2017-09-30T05:54:17.028Z,26.9
2017-09-30T05:56:17.902Z,28.5
2017-09-30T05:58:17.800Z,19.3
2017-09-30T06:00:17.705Z,22.8
2017-09-30T06:02:17.612Z,32.6
2017-09-30T06:04:17.536Z,23
2017-09-30T06:06:17.420Z,24.1
2017-09-30T06:08:17.297Z,24
2017-09-30T06:10:18.217Z,24.7
2017-09-30T06:12:17.147Z,24.7
2017-09-30T06:14:16.978Z,25
2017-09-30T06:16:17.887Z,22.6
2017-09-30T06:18:16.797Z,21.1
2017-09-30T06:20:17.679Z,22
2017-09-30T06:22:17.581Z,24.6
2017-09-30T06:24:17.534Z,24.9
2017-09-30T06:26:17.408Z,22
2017-09-30T06:28:17.325Z,20.9
2017-09-30T06:30:17.207Z,27.8
2017-09-30T06:32:17.136Z,21.7
2017-09-30T06:34:17.075Z,33.9
2017-09-30T06:36:18.017Z,23.4
2017-09-30T06:38:16.882Z,21
2017-09-30T06:40:17.778Z,25.4
2017-09-30T06:42:17.744Z,27.7
2017-09-30T06:44:17.612Z,19.5
2017-09-30T06:46:18.536Z,22.9
2017-09-30T06:48:17.494Z,25.2
2017-09-30T06:50:17.388Z,21
2017-09-30T06:52:17.331Z,34.4
2017-09-30T06:54:17.242Z,24.2
2017-09-30T06:56:17.142Z,25.7
2017-09-30T06:58:17.049Z,29.3
2017-09-30T07:00:17.017Z,23.2
2017-09-30T07:02:16.910Z,27.8
2017-09-30T07:04:17.794Z,23.8
2017-09-30T07:06:17.735Z,23.9
2017-09-30T07:08:17.682Z,24.5
2017-09-30T07:10:17.624Z,25.9
2017-09-30T07:12:17.498Z,21.5
2017-09-30T07:14:17.411Z,24.2
2017-09-30T07:16:18.360Z,21.6
2017-09-30T07:18:17.262Z,25.3
2017-09-30T07:20:17.185Z,18
2017-09-30T07:22:17.143Z,16.7
2017-09-30T07:24:17.044Z,21.7
2017-09-30T07:26:17.967Z,22.2
2017-09-30T07:28:16.928Z,19.1
2017-09-30T07:30:17.821Z,16.4
2017-09-30T07:32:17.778Z,21.4
2017-09-30T07:34:17.737Z,18.8
2017-09-30T07:36:17.645Z,21.6
2017-09-30T07:38:17.585Z,24.1
2017-09-30T07:40:17.499Z,22.5
2017-09-30T07:42:17.452Z,16
2017-09-30T07:44:17.399Z,20.1
2017-09-30T07:46:17.358Z,25.1
2017-09-30T07:48:17.283Z,16.5
2017-09-30T07:50:17.264Z,27.8
2017-09-30T07:52:17.149Z,23
2017-09-30T07:54:17.086Z,28.9
2017-09-30T07:56:18.097Z,25.1
2017-09-30T07:58:17.004Z,22.7
2017-09-30T08:00:16.948Z,26.3
2017-09-30T08:02:16.926Z,18.9
2017-09-30T08:04:17.835Z,21.2
2017-09-30T08:06:17.795Z,21.2
2017-09-30T08:08:17.793Z,15.7
2017-09-30T08:10:17.703Z,18
2017-09-30T08:12:17.614Z,19.9
2017-09-30T08:14:17.604Z,18
2017-09-30T08:16:17.531Z,16.7
2017-09-30T08:18:17.473Z,17.6
2017-09-30T08:20:17.438Z,21.7
2017-09-30T08:22:17.368Z,19.1
2017-09-30T08:24:17.340Z,19.9
2017-09-30T08:26:18.274Z,19.1
2017-09-30T08:28:17.215Z,26.2
2017-09-30T08:30:17.218Z,16.8
2017-09-30T08:32:17.120Z,17.8
2017-09-30T08:34:17.070Z,20.7
2017-09-30T08:36:18.058Z,23.2
2017-09-30T08:38:17.001Z,19.2
2017-09-30T08:40:17.912Z,17.5
2017-09-30T08:42:17.906Z,15.9
2017-09-30T08:44:17.820Z,16.1
2017-09-30T08:46:17.822Z,21.9
2017-09-30T08:48:17.791Z,18.7
2017-09-30T08:50:17.759Z,13.8
2017-09-30T08:52:17.728Z,19.7
2017-09-30T08:54:17.738Z,20.1
2017-09-30T08:56:17.647Z,23.2
2017-09-30T08:58:17.651Z,21.4
2017-09-30T09:00:17.622Z,19.1
2017-09-30T09:02:17.612Z,16.9
2017-09-30T09:04:17.575Z,24
2017-09-30T09:06:18.554Z,19.3
2017-09-30T09:08:17.519Z,18.1
2017-09-30T09:10:17.512Z,16.1
2017-09-30T09:12:17.468Z,23.9
2017-09-30T09:14:17.493Z,15.7
2017-09-30T09:16:18.495Z,19.9
2017-09-30T09:18:17.434Z,13.6
2017-09-30T09:20:17.422Z,36.3
2017-09-30T09:22:17.408Z,15.1
2017-09-30T09:24:17.375Z,15.8
2017-09-30T09:26:17.351Z,14
2017-09-30T09:28:17.363Z,21.7
2017-09-30T09:30:17.344Z,15
2017-09-30T09:32:17.305Z,15.7
2017-09-30T09:34:17.333Z,15.2
2017-09-30T09:36:17.298Z,18.6
2017-09-30T09:38:17.305Z,14
2017-09-30T09:40:18.291Z,12.2
2017-09-30T09:42:17.307Z,16
2017-09-30T09:44:17.338Z,13.6
2017-09-30T09:46:18.338Z,11.8
2017-09-30T09:48:17.322Z,23.8
2017-09-30T09:50:17.393Z,12.4
2017-09-30T09:52:17.375Z,15.9
2017-09-30T09:54:17.412Z,22.7
2017-09-30T09:56:18.454Z,16
2017-09-30T09:58:17.473Z,14.4
2017-09-30T10:00:17.455Z,15
2017-09-30T10:02:17.527Z,16.9
2017-09-30T10:04:17.510Z,13.4
2017-09-30T10:06:17.549Z,11.3
2017-09-30T10:08:17.569Z,10.1
2017-09-30T10:10:17.566Z,20.9
2017-09-30T10:12:17.617Z,14.4
2017-09-30T10:14:17.675Z,14.2
2017-09-30T10:16:17.692Z,10.4
2017-09-30T10:18:17.735Z,9.6
2017-09-30T10:20:17.758Z,16
2017-09-30T10:22:17.809Z,30.9
2017-09-30T10:24:17.873Z,16.7
2017-09-30T10:26:17.918Z,14.5
2017-09-30T10:28:17.940Z,12.3
2017-09-30T10:30:17.046Z,15
2017-09-30T10:32:17.037Z,11.9
2017-09-30T10:34:17.066Z,9.3
2017-09-30T10:36:18.150Z,12.4
2017-09-30T10:38:17.187Z,11.2
2017-09-30T10:40:18.240Z,13.4
2017-09-30T10:42:17.316Z,12.6
2017-09-30T10:44:17.349Z,11.1
2017-09-30T10:46:17.427Z,8.5
2017-09-30T10:48:17.509Z,15.1
2017-09-30T10:50:17.535Z,9.4
2017-09-30T10:52:17.592Z,8.1
2017-09-30T10:54:17.681Z,12.9
2017-09-30T10:56:17.720Z,10.2
2017-09-30T10:58:17.787Z,9.5
2017-09-30T11:00:17.882Z,10
2017-09-30T11:02:17.961Z,12.7
2017-09-30T11:04:17.026Z,10.7
2017-09-30T11:06:18.129Z,7.2
2017-09-30T11:08:17.141Z,7.2
2017-09-30T11:10:18.209Z,12.2
2017-09-30T11:12:17.281Z,6.2
2017-09-30T11:14:17.334Z,7.7
2017-09-30T11:16:17.389Z,9.8
2017-09-30T11:18:17.533Z,10.8
2017-09-30T11:20:17.593Z,12.3
2017-09-30T11:22:17.671Z,20.7
2017-09-30T11:24:17.768Z,10.5
2017-09-30T11:26:17.842Z,11
2017-09-30T11:28:17.932Z,11.4
2017-09-30T11:30:18.062Z,5.9
2017-09-30T11:32:17.147Z,10
2017-09-30T11:34:17.257Z,12.1
2017-09-30T11:36:17.330Z,9
2017-09-30T11:38:17.428Z,7.9
2017-09-30T11:40:17.517Z,7.4
2017-09-30T11:42:17.636Z,8.9
2017-09-30T11:44:17.726Z,6.6
2017-09-30T11:46:17.826Z,7.4
2017-09-30T11:48:17.943Z,11.3
2017-09-30T11:50:17.046Z,9.6
2017-09-30T11:52:17.141Z,11.2
2017-09-30T11:54:17.280Z,7.5
2017-09-30T11:56:17.373Z,9.5
2017-09-30T11:58:17.459Z,8.7
2017-09-30T12:00:17.588Z,7.2
2017-09-30T12:02:17.698Z,6.9
2017-09-30T12:04:17.782Z,8.2
2017-09-30T12:06:17.934Z,9.8
2017-09-30T12:08:17.025Z,9.4
2017-09-30T12:10:18.178Z,6.7
2017-09-30T12:12:17.277Z,7.3
2017-09-30T12:14:17.366Z,9.9
2017-09-30T12:16:17.524Z,9.6
2017-09-30T12:18:17.587Z,5.7
2017-09-30T12:20:17.724Z,7.7
2017-09-30T12:22:17.874Z,8.3
2017-09-30T12:24:17.979Z,6.4
2017-09-30T12:26:18.089Z,6.6
2017-09-30T12:28:17.244Z,9.3
2017-09-30T12:30:17.346Z,9.2
2017-09-30T12:32:17.483Z,6.6
2017-09-30T12:34:17.682Z,7.4
2017-09-30T12:36:16.802Z,8.3
2017-09-30T12:38:18.025Z,11
2017-09-30T12:40:18.190Z,10.8
2017-09-30T12:42:17.379Z,6.3
2017-09-30T12:44:17.603Z,5.4
2017-09-30T12:46:17.883Z,5.4
2017-09-30T12:48:18.129Z,16
2017-09-30T12:50:17.369Z,7.3
2017-09-30T12:52:17.682Z,6
2017-09-30T12:54:17.986Z,10
2017-09-30T12:56:17.238Z,5.1
2017-09-30T12:58:17.585Z,7.3
2017-09-30T13:00:17.867Z,12.6
2017-09-30T13:02:18.151Z,18.2
2017-09-30T13:04:17.507Z,4.1
2017-09-30T13:06:17.827Z,7
2017-09-30T13:08:18.173Z,11.2
2017-09-30T13:10:17.490Z,6.5
2017-09-30T13:12:17.844Z,7.9
2017-09-30T13:14:18.221Z,7.2
2017-09-30T13:16:17.634Z,5.1
2017-09-30T13:18:17.957Z,9.9
2017-09-30T13:20:17.317Z,6.5
2017-09-30T13:22:17.717Z,8.1
2017-09-30T13:24:18.031Z,5.3
2017-09-30T13:26:18.404Z,6.3
2017-09-30T13:28:17.772Z,7.2
2017-09-30T13:30:18.065Z,4.8
2017-09-30T13:32:17.412Z,6.7
2017-09-30T13:34:17.776Z,12
2017-09-30T13:36:17.094Z,4.4
2017-09-30T13:38:17.479Z,4.4
2017-09-30T13:40:16.822Z,20.1
2017-09-30T13:42:18.183Z,4
2017-09-30T13:44:17.530Z,5.7
2017-09-30T13:46:17.926Z,7.2
2017-09-30T13:48:18.247Z,5.9
2017-09-30T13:50:17.603Z,8.2
2017-09-30T13:52:17.968Z,3.6
2017-09-30T13:54:17.270Z,7.2
2017-09-30T13:56:17.619Z,3.2
2017-09-30T13:58:17.968Z,10.6
2017-09-30T14:00:17.269Z,7.8
2017-09-30T14:02:17.586Z,7.1
2017-09-30T14:04:17.918Z,5.8
2017-09-30T14:06:18.178Z,7.8
2017-09-30T14:08:17.482Z,8
2017-09-30T14:10:17.715Z,10.3
2017-09-30T14:12:18.011Z,6.6
2017-09-30T14:14:17.320Z,10.3
2017-09-30T14:16:17.517Z,8.5
2017-09-30T14:18:17.777Z,10.7
2017-09-30T14:20:18.061Z,9.7
2017-09-30T14:22:17.321Z,7.5
2017-09-30T14:24:17.563Z,4.5
2017-09-30T14:26:17.819Z,9.9
2017-09-30T14:28:18.074Z,6.5
2017-09-30T14:30:17.327Z,8.1
2017-09-30T14:32:17.601Z,9.2
2017-09-30T14:34:17.796Z,10.9
2017-09-30T14:36:18.062Z,4.6
2017-09-30T14:38:17.281Z,7.2
2017-09-30T14:40:18.524Z,4.7
2017-09-30T14:42:17.705Z,5.8
2017-09-30T14:44:17.965Z,23.7
2017-09-30T14:46:18.157Z,7.2
2017-09-30T14:48:17.324Z,15.6
2017-09-30T14:50:17.554Z,3.8
2017-09-30T14:52:17.759Z,12.1
2017-09-30T14:54:17.973Z,5
2017-09-30T14:56:17.160Z,7.7
2017-09-30T14:58:17.328Z,7.7
2017-09-30T15:00:17.534Z,9.4
2017-09-30T15:02:17.726Z,9.3
2017-09-30T15:04:17.895Z,4.1
2017-09-30T15:06:17.077Z,3.5
2017-09-30T15:08:17.279Z,7.3
2017-09-30T15:10:18.447Z,5.3
2017-09-30T15:12:17.636Z,5.7
2017-09-30T15:14:17.838Z,11.1
2017-09-30T15:16:18.019Z,5.6
2017-09-30T15:18:17.216Z,7.5
2017-09-30T15:20:17.418Z,5.2
2017-09-30T15:22:17.605Z,10.1
2017-09-30T15:24:17.768Z,6.6
2017-09-30T15:26:16.998Z,5.2
2017-09-30T15:28:17.147Z,6.6
2017-09-30T15:30:17.343Z,6.9
2017-09-30T15:32:17.563Z,4.5
2017-09-30T15:34:17.730Z,6.9
2017-09-30T15:36:16.871Z,6.1
2017-09-30T15:38:18.083Z,4.4
2017-09-30T15:40:18.238Z,9
2017-09-30T15:42:17.370Z,8.1
2017-09-30T15:44:17.587Z,6.3
2017-09-30T15:46:17.707Z,9.9
2017-09-30T15:48:17.839Z,8.4
2017-09-30T15:50:18.044Z,5.2
2017-09-30T15:52:17.178Z,5.5
2017-09-30T15:54:17.320Z,5.5
2017-09-30T15:56:17.523Z,5.9
2017-09-30T15:58:17.633Z,5.5
2017-09-30T16:00:17.784Z,11.1
2017-09-30T16:02:17.959Z,13.3
2017-09-30T16:04:17.093Z,9.9
2017-09-30T16:06:17.273Z,9.2
2017-09-30T16:08:17.407Z,5.7
2017-09-30T16:10:18.528Z,6.6
2017-09-30T16:12:17.650Z,6.3
2017-09-30T16:14:17.810Z,8.5
2017-09-30T16:16:17.938Z,6.6
2017-09-30T16:18:17.023Z,7.9
2017-09-30T16:20:17.168Z,9.5
2017-09-30T16:22:17.324Z,7.9
2017-09-30T16:24:17.405Z,6.5
2017-09-30T16:26:17.504Z,9.3
2017-09-30T16:28:17.618Z,12.2
2017-09-30T16:30:17.722Z,9.4
2017-09-30T16:32:17.779Z,8.2
2017-09-30T16:34:17.871Z,3.5
2017-09-30T16:36:16.980Z,7
2017-09-30T16:38:17.082Z,10
2017-09-30T16:40:18.161Z,6.1
2017-09-30T16:42:17.259Z,7.6
2017-09-30T16:44:17.329Z,4.4
2017-09-30T16:46:17.423Z,10.4
2017-09-30T16:48:17.541Z,5.1
2017-09-30T16:50:17.588Z,7.8
2017-09-30T16:52:17.708Z,5.4
2017-09-30T16:54:17.794Z,8.6
2017-09-30T16:56:17.838Z,6.3
2017-09-30T16:58:17.925Z,5.6
2017-09-30T17:00:17.985Z,6
2017-09-30T17:02:17.037Z,4.6
2017-09-30T17:04:17.108Z,11.1
2017-09-30T17:06:18.215Z,4.6
2017-09-30T17:08:17.246Z,8.8
2017-09-30T17:10:18.367Z,4.5
2017-09-30T17:12:17.413Z,5.7
2017-09-30T17:14:17.441Z,8
2017-09-30T17:16:17.504Z,6.3
2017-09-30T17:18:17.621Z,6.5
2017-09-30T17:20:17.622Z,11.9
2017-09-30T17:22:17.678Z,7.5
2017-09-30T17:24:17.764Z,11.1
2017-09-30T17:26:17.803Z,5.5
2017-09-30T17:28:17.828Z,5.6
2017-09-30T17:30:17.921Z,11
2017-09-30T17:32:17.962Z,7
2017-09-30T17:34:17.008Z,9.7
2017-09-30T17:36:18.108Z,8.3
2017-09-30T17:38:17.132Z,11.9
2017-09-30T17:40:18.176Z,24.6
2017-09-30T17:42:17.254Z,7.9
2017-09-30T17:44:17.270Z,12.3
2017-09-30T17:46:17.355Z,7.1
2017-09-30T17:48:17.450Z,11
2017-09-30T17:50:17.445Z,8.8
2017-09-30T17:52:17.535Z,17.1
2017-09-30T17:54:17.583Z,13.6
2017-09-30T17:56:17.620Z,18.5
2017-09-30T17:58:17.673Z,8.4
2017-09-30T18:00:17.719Z,9.8
2017-09-30T18:02:17.757Z,12.3
2017-09-30T18:04:17.790Z,8.9
2017-09-30T18:06:16.847Z,11.4
2017-09-30T18:08:17.875Z,13.5
2017-09-30T18:10:17.896Z,12.1
2017-09-30T18:12:18.001Z,11.1
2017-09-30T18:14:17.029Z,16.5
2017-09-30T18:16:18.025Z,12.7
2017-09-30T18:18:17.131Z,9.8
2017-09-30T18:20:17.134Z,15
2017-09-30T18:22:17.155Z,9.8
2017-09-30T18:24:17.235Z,14.7
2017-09-30T18:26:18.231Z,10.5
2017-09-30T18:28:17.273Z,13.4
2017-09-30T18:30:17.295Z,15.3
2017-09-30T18:32:17.335Z,13.2
2017-09-30T18:34:17.373Z,15.2
2017-09-30T18:36:18.407Z,10.7
2017-09-30T18:38:17.473Z,14.8
2017-09-30T18:40:17.519Z,14.5
2017-09-30T18:42:17.542Z,14.1
2017-09-30T18:44:17.561Z,13.9
2017-09-30T18:46:18.636Z,14.9
2017-09-30T18:48:17.637Z,11.3
2017-09-30T18:50:17.696Z,15.1
2017-09-30T18:52:17.729Z,8.8
2017-09-30T18:54:17.743Z,9.8
2017-09-30T18:56:17.756Z,13
2017-09-30T18:58:17.817Z,9.1
2017-09-30T19:00:17.815Z,17.4
2017-09-30T19:02:17.843Z,17.3
2017-09-30T19:04:17.896Z,12.5
2017-09-30T19:06:17.883Z,10.1
2017-09-30T19:08:17.919Z,9.4
2017-09-30T19:10:17.960Z,11.4
2017-09-30T19:12:16.959Z,15.8
2017-09-30T19:14:16.988Z,11.7
2017-09-30T19:16:18.037Z,7.2
2017-09-30T19:18:17.056Z,11.7
2017-09-30T19:20:17.122Z,11.8
2017-09-30T19:22:17.108Z,11.7
2017-09-30T19:24:17.162Z,21.6
2017-09-30T19:26:17.166Z,9.7
2017-09-30T19:28:17.212Z,9.7
2017-09-30T19:30:17.237Z,9.4
2017-09-30T19:32:17.257Z,14
2017-09-30T19:34:17.200Z,6.3
2017-09-30T19:36:17.239Z,9.9
2017-09-30T19:38:17.295Z,8.9
2017-09-30T19:40:18.257Z,10.5
2017-09-30T19:42:17.261Z,7.7
2017-09-30T19:44:17.279Z,11.8
2017-09-30T19:46:17.289Z,9.3
2017-09-30T19:48:17.278Z,7.7
2017-09-30T19:50:17.295Z,10.1
2017-09-30T19:52:17.332Z,5.7
2017-09-30T19:54:17.341Z,5.6
2017-09-30T19:56:17.352Z,11.7
2017-09-30T19:58:17.344Z,7.7
2017-09-30T20:00:17.402Z,7.4
2017-09-30T20:02:17.432Z,12.6
2017-09-30T20:04:17.389Z,6.5
2017-09-30T20:06:17.388Z,10.9
2017-09-30T20:08:17.389Z,8.9
2017-09-30T20:10:18.416Z,18.8
2017-09-30T20:12:17.441Z,15.8
2017-09-30T20:14:17.424Z,12
2017-09-30T20:16:17.462Z,8.9
2017-09-30T20:18:17.487Z,15.9
2017-09-30T20:20:17.421Z,15.7
2017-09-30T20:22:17.447Z,7
2017-09-30T20:24:17.443Z,9
2017-09-30T20:26:18.429Z,7.7
2017-09-30T20:28:17.463Z,8.5
2017-09-30T20:30:17.429Z,9.5
2017-09-30T20:32:17.406Z,10.3
2017-09-30T20:34:17.430Z,10.3
2017-09-30T20:36:17.431Z,8.1
2017-09-30T20:38:17.404Z,7.5
2017-09-30T20:40:18.434Z,7.6
2017-09-30T20:42:17.440Z,9.5
2017-09-30T20:44:17.444Z,9.6
2017-09-30T20:46:18.439Z,6.6
2017-09-30T20:48:17.406Z,27
2017-09-30T20:50:17.411Z,9.3
2017-09-30T20:52:17.423Z,7.2
2017-09-30T20:54:17.379Z,9.5
2017-09-30T20:56:18.352Z,5.1
2017-09-30T20:58:17.386Z,7.3
2017-09-30T21:00:17.334Z,7.1
2017-09-30T21:02:17.346Z,7.2
2017-09-30T21:04:17.338Z,9.1
2017-09-30T21:06:18.319Z,11.6
2017-09-30T21:08:17.309Z,9.5
2017-09-30T21:10:18.302Z,5
2017-09-30T21:12:17.257Z,9.2
2017-09-30T21:14:17.276Z,7.5
2017-09-30T21:16:17.235Z,14.4
2017-09-30T21:18:17.234Z,8.8
2017-09-30T21:20:17.269Z,10.7
2017-09-30T21:22:17.213Z,16.1
2017-09-30T21:24:17.186Z,11.3
2017-09-30T21:26:17.255Z,11.3
2017-09-30T21:28:17.175Z,9.5
2017-09-30T21:30:17.160Z,16.9
2017-09-30T21:32:17.197Z,8.3
2017-09-30T21:34:17.192Z,12.4
2017-09-30T21:36:17.180Z,8.8
2017-09-30T21:38:17.156Z,7.8
2017-09-30T21:40:18.152Z,9.1
2017-09-30T21:42:17.131Z,7.6
2017-09-30T21:44:17.162Z,9.9
2017-09-30T21:46:18.112Z,8.9
2017-09-30T21:48:17.108Z,9.8
2017-09-30T21:50:17.142Z,9.5
2017-09-30T21:54:18.126Z,6.7
2017-09-30T21:56:18.114Z,8.4
2017-09-30T21:58:17.117Z,8.3
2017-09-30T22:00:17.151Z,13.9
2017-09-30T22:02:17.105Z,9.6
2017-09-30T22:04:17.082Z,9.2
2017-09-30T22:06:17.137Z,18.4
2017-09-30T22:08:17.093Z,14.7
2017-09-30T22:10:18.111Z,10.8
2017-09-30T22:12:17.147Z,11.3
2017-09-30T22:14:17.111Z,6.1
2017-09-30T22:16:18.097Z,9
2017-09-30T22:18:17.140Z,13.1
2017-09-30T22:20:17.131Z,9.5
2017-09-30T22:22:17.137Z,11.8
2017-09-30T22:24:17.153Z,10.8
2017-09-30T22:26:18.158Z,11.6
2017-09-30T22:28:17.128Z,8.1
2017-09-30T22:30:17.151Z,19.9
2017-09-30T22:32:17.123Z,10.1
2017-09-30T22:34:17.107Z,8
2017-09-30T22:36:18.116Z,6.4
2017-09-30T22:38:17.134Z,10.3
2017-09-30T22:40:18.098Z,13.2
2017-09-30T22:42:17.118Z,10.6
2017-09-30T22:44:17.095Z,11.8
2017-09-30T22:46:18.090Z,9.6
2017-09-30T22:48:17.076Z,11.4
2017-09-30T22:50:17.068Z,10.4
2017-09-30T22:52:17.082Z,10.9
2017-09-30T22:54:17.061Z,7
2017-09-30T22:56:18.048Z,8.6
2017-09-30T22:58:17.070Z,10.3
2017-09-30T23:00:17.052Z,13.5
2017-09-30T23:02:17.048Z,7.9
2017-09-30T23:04:17.088Z,12.5
2017-09-30T23:06:18.073Z,12.6
2017-09-30T23:08:17.064Z,12.2
2017-09-30T23:10:17.996Z,6.8
2017-09-30T23:12:17.021Z,7.7
2017-09-30T23:14:17.008Z,6.8
2017-09-30T23:16:18.013Z,10.3
2017-09-30T23:18:16.941Z,12.4
2017-09-30T23:20:16.947Z,14.3
2017-09-30T23:22:16.973Z,10.2
2017-09-30T23:24:16.918Z,6.9
2017-09-30T23:26:17.880Z,12.3
2017-09-30T23:28:17.896Z,12.3
2017-09-30T23:30:17.832Z,10.7
2017-09-30T23:32:17.809Z,9.5
2017-09-30T23:34:17.825Z,8.7
2017-09-30T23:36:17.785Z,12.3
2017-09-30T23:38:17.745Z,7.7
2017-09-30T23:40:17.744Z,11.8
2017-09-30T23:42:17.762Z,12.9
2017-09-30T23:44:17.748Z,10.8
2017-09-30T23:46:17.722Z,8.5
2017-09-30T23:48:17.648Z,6.6
2017-09-30T23:50:17.655Z,14.7
2017-09-30T23:52:17.654Z,10.8
2017-09-30T23:54:17.574Z,16
2017-09-30T23:56:18.533Z,15.3
2017-09-30T23:58:17.529Z,15.3
